Dennison, OH (44621)

2:30 AM EST on December 11, 2016 (GMT -0500)
| | Change Station

Elev -9999 ft 0.00 °N, 0.00 °E | Updated 8 minutes ago

Snow
Snow
71 °F
Feels Like 71 °F
N
4
Wind Variable Wind from South
Gusts mph

Today
High -- | Low -- °F
--% Chance of Precip.
Yesterday
High -- | Low -- °F
Precip. -- in
Pressure 30.45 in
Visibility 1.8 miles
Clouds Overcast 2200 ft
Dew Point 65 °F
Humidity 81%
Rainfall --
Snow Depth Not available.
7:38 AM 4:59 PM
Waxing Gibbous, 89% visible
SPECI KPHD 110713Z AUTO 00000KT 1 3/4SM -SN BR OVC022 M05/M07 A3045 RMK AO2 SNB0655 P0000 T10501072
Pressure 30.45 in
Visibility 1.8 miles
Clouds Overcast 2200 ft
Dew Point 65 °F
Humidity 81%
Rainfall --
Snow Depth Not available.
7:38 AM 4:59 PM
Waxing Gibbous, 89% visible
SPECI KPHD 110713Z AUTO 00000KT 1 3/4SM -SN BR OVC022 M05/M07 A3045 RMK AO2 SNB0655 P0000 T10501072

10-Day Weather Forecast

Almanac

Astronomy

Dec. 11, 2016 Rise Set
Actual Time
Civil Twilight
Nautical Twilight
Astronomical Twilight
Moon
Length of Visible Light
Length of Day
Tomorrow will be .
, % of the Moon is Illuminated

Today's Extremes

State Highs State Lows

Community

WunderPhotos

Upload Photos

1,956,707 photos uploaded!

WunderBlog® & News

Nearby

Air Quality

  Air Quality AQ Index Pollutant
Not available.

Snow Depth

Station Depth Elevation

Earthquake Activity

City Distance Mag. Time & Date
Minimum magnitude displayed is 2.5.

Coastal Water Temperatures

Place Temperature

Stations

Nearby Weather Stations

Station Location Temp. Windchill Dew Point Humidity Wind Precip. Elev Updated Type
                   

Watches & Warnings

There are currently no watches in effect.